createdAt,value
2018-08-27T00:00:43.755Z,2.50
2018-08-27T00:03:11.901Z,2.40
2018-08-27T00:05:40.074Z,2.37
2018-08-27T00:08:08.246Z,1.93
2018-08-27T00:10:36.341Z,2.17
2018-08-27T00:13:04.425Z,1.80
2018-08-27T00:15:32.728Z,2.47
2018-08-27T00:18:00.897Z,2.40
2018-08-27T00:20:29.002Z,2.70
2018-08-27T00:22:57.114Z,2.37
2018-08-27T00:25:25.239Z,2.70
2018-08-27T00:27:53.308Z,2.30
2018-08-27T00:30:21.392Z,2.70
2018-08-27T00:32:49.470Z,2.47
2018-08-27T00:35:17.537Z,2.80
2018-08-27T00:37:45.624Z,3.00
2018-08-27T00:40:13.695Z,2.80
2018-08-27T00:42:41.781Z,2.83
2018-08-27T00:45:09.853Z,3.40
2018-08-27T00:47:37.935Z,2.77
2018-08-27T00:50:06.028Z,2.37
2018-08-27T00:52:34.112Z,2.80
2018-08-27T00:55:02.169Z,2.13
2018-08-27T00:57:30.269Z,2.23
2018-08-27T00:59:58.333Z,2.30
2018-08-27T01:02:26.756Z,2.50
2018-08-27T01:04:54.821Z,2.30
2018-08-27T01:07:23.519Z,2.20
2018-08-27T01:09:51.604Z,2.13
2018-08-27T01:12:19.677Z,2.20
2018-08-27T01:14:47.757Z,2.50
2018-08-27T01:17:15.821Z,2.30
2018-08-27T01:19:44.101Z,2.60
2018-08-27T01:22:13.156Z,3.20
2018-08-27T01:24:41.229Z,2.70
2018-08-27T01:27:09.305Z,2.47
2018-08-27T01:29:37.389Z,2.37
2018-08-27T01:32:10.816Z,2.30
2018-08-27T01:34:38.889Z,2.23
2018-08-27T01:37:06.972Z,2.00
2018-08-27T01:39:35.070Z,2.17
2018-08-27T01:42:03.132Z,2.23
2018-08-27T01:44:31.205Z,2.03
2018-08-27T01:46:59.291Z,2.70
2018-08-27T01:49:27.385Z,2.13
2018-08-27T01:51:55.456Z,2.13
2018-08-27T01:54:23.579Z,2.30
2018-08-27T01:56:51.606Z,2.15
2018-08-27T01:59:19.689Z,2.87
2018-08-27T02:01:47.773Z,1.90
2018-08-27T02:04:15.853Z,2.00
2018-08-27T02:06:49.165Z,2.00
2018-08-27T02:09:17.262Z,1.93
2018-08-27T02:11:45.333Z,2.53
2018-08-27T02:14:13.410Z,2.47
2018-08-27T02:16:41.485Z,2.50
2018-08-27T02:19:09.576Z,2.17
2018-08-27T02:21:37.677Z,2.37
2018-08-27T02:24:05.956Z,1.70
2018-08-27T02:26:34.062Z,2.27
2018-08-27T02:29:02.153Z,2.13
2018-08-27T02:31:30.221Z,1.97
2018-08-27T02:33:58.592Z,2.40
2018-08-27T02:36:26.661Z,2.30
2018-08-27T02:38:54.749Z,2.27
2018-08-27T02:41:22.808Z,2.10
2018-08-27T02:43:50.900Z,2.13
2018-08-27T02:46:18.965Z,2.73
2018-08-27T02:48:47.055Z,2.93
2018-08-27T02:51:15.117Z,2.30
2018-08-27T02:53:43.201Z,2.40
2018-08-27T02:56:11.277Z,2.17
2018-08-27T02:58:39.545Z,2.57
2018-08-27T03:01:07.617Z,1.87
2018-08-27T03:03:35.716Z,1.80
2018-08-27T03:06:03.817Z,2.70
2018-08-27T03:08:31.919Z,2.20
2018-08-27T03:11:00.191Z,2.20
2018-08-27T03:13:28.321Z,2.10
2018-08-27T03:15:56.389Z,2.67
2018-08-27T03:18:24.544Z,2.67
2018-08-27T03:20:52.590Z,2.20
2018-08-27T03:23:20.661Z,2.30
2018-08-27T03:25:48.761Z,2.00
2018-08-27T03:28:16.834Z,2.07
2018-08-27T03:30:44.902Z,2.00
2018-08-27T03:33:12.989Z,2.23
2018-08-27T03:35:41.068Z,3.57
2018-08-27T03:38:09.161Z,2.30
2018-08-27T03:40:37.268Z,2.57
2018-08-27T03:43:05.590Z,2.20
2018-08-27T03:45:33.685Z,1.90
2018-08-27T03:48:01.781Z,1.80
2018-08-27T03:50:29.872Z,2.37
2018-08-27T03:52:58.028Z,2.20
2018-08-27T03:55:26.116Z,2.10
2018-08-27T03:57:54.185Z,2.20
2018-08-27T04:00:22.269Z,2.07
2018-08-27T04:02:50.350Z,2.40
2018-08-27T04:05:18.464Z,2.30
2018-08-27T04:07:46.507Z,2.37
2018-08-27T04:10:14.811Z,2.43
2018-08-27T04:12:42.906Z,2.20
2018-08-27T04:15:10.973Z,1.80
2018-08-27T04:17:39.057Z,2.10
2018-08-27T04:20:07.134Z,2.20
2018-08-27T04:22:35.223Z,2.10
2018-08-27T04:25:03.293Z,2.00
2018-08-27T04:27:31.385Z,2.00
2018-08-27T04:29:59.475Z,1.93
2018-08-27T04:32:27.537Z,1.83
2018-08-27T04:34:55.651Z,2.30
2018-08-27T04:37:23.686Z,2.40
2018-08-27T04:39:51.813Z,2.03
2018-08-27T04:42:19.888Z,2.10
2018-08-27T04:44:47.970Z,2.43
2018-08-27T04:47:16.058Z,2.10
2018-08-27T04:49:44.149Z,2.00
2018-08-27T04:52:12.218Z,2.07
2018-08-27T04:54:40.309Z,2.60
2018-08-27T04:57:08.380Z,2.33
2018-08-27T04:59:42.205Z,2.80
2018-08-27T05:02:10.319Z,2.40
2018-08-27T05:04:38.392Z,2.20
2018-08-27T05:07:06.773Z,2.13
2018-08-27T05:09:34.904Z,2.20
2018-08-27T05:12:03.001Z,2.40
2018-08-27T05:14:31.073Z,2.53
2018-08-27T05:16:59.150Z,1.93
2018-08-27T05:19:27.222Z,2.13
2018-08-27T05:21:55.302Z,2.10
2018-08-27T05:24:23.393Z,2.17
2018-08-27T05:26:51.470Z,2.10
2018-08-27T05:29:19.626Z,2.33
2018-08-27T05:31:47.888Z,2.20
2018-08-27T05:34:15.964Z,2.87
2018-08-27T05:36:44.057Z,2.10
2018-08-27T05:39:12.133Z,2.40
2018-08-27T05:41:40.214Z,2.20
2018-08-27T05:44:08.344Z,2.23
2018-08-27T05:46:36.427Z,2.47
2018-08-27T05:49:04.502Z,2.30
2018-08-27T05:51:32.876Z,1.80
2018-08-27T05:54:00.921Z,1.63
2018-08-27T05:56:29.021Z,1.97
2018-08-27T05:58:57.125Z,2.10
2018-08-27T06:01:25.539Z,1.97
2018-08-27T06:03:53.582Z,2.40
2018-08-27T06:06:21.668Z,2.37
2018-08-27T06:08:49.774Z,2.03
2018-08-27T06:11:17.891Z,1.90
2018-08-27T06:13:45.922Z,1.90
2018-08-27T06:16:14.110Z,2.10
2018-08-27T06:18:42.101Z,2.30
2018-08-27T06:21:10.189Z,1.93
2018-08-27T06:23:38.269Z,2.80
2018-08-27T06:26:06.365Z,2.13
2018-08-27T06:28:34.453Z,2.10
2018-08-27T06:31:02.536Z,2.10
2018-08-27T06:33:30.617Z,1.90
2018-08-27T06:35:58.799Z,2.10
2018-08-27T06:38:27.071Z,2.10
2018-08-27T06:40:55.142Z,1.90
2018-08-27T06:43:23.233Z,2.37
2018-08-27T06:45:51.332Z,2.53
2018-08-27T06:48:19.430Z,2.23
2018-08-27T06:50:47.497Z,2.50
2018-08-27T06:53:15.787Z,2.23
2018-08-27T06:55:44.402Z,2.70
2018-08-27T06:58:13.121Z,3.40
2018-08-27T07:00:41.875Z,3.30
2018-08-27T07:03:10.150Z,2.03
2018-08-27T07:05:39.299Z,2.27
2018-08-27T07:08:07.801Z,2.50
2018-08-27T07:10:36.328Z,2.50
2018-08-27T07:13:05.670Z,2.40
2018-08-27T07:15:34.039Z,2.43
2018-08-27T07:18:02.575Z,2.40
2018-08-27T07:20:31.959Z,2.30
2018-08-27T07:23:00.642Z,2.43
2018-08-27T07:25:30.118Z,2.77
2018-08-27T07:27:58.413Z,2.60
2018-08-27T07:30:26.652Z,2.40
2018-08-27T07:32:54.750Z,2.73
2018-08-27T07:35:22.829Z,2.50
2018-08-27T07:37:50.926Z,2.60
2018-08-27T07:40:18.990Z,2.50
2018-08-27T07:42:47.069Z,2.20
2018-08-27T07:45:15.263Z,2.80
2018-08-27T07:47:43.341Z,2.70
2018-08-27T07:50:11.409Z,2.83
2018-08-27T07:52:39.732Z,2.43
2018-08-27T07:55:08.134Z,2.30
2018-08-27T07:57:36.247Z,2.60
2018-08-27T08:00:06.530Z,2.20
2018-08-27T08:02:34.626Z,2.30
2018-08-27T08:05:02.841Z,2.50
2018-08-27T08:07:30.970Z,2.37
2018-08-27T08:09:59.040Z,2.63
2018-08-27T08:12:27.113Z,2.17
2018-08-27T08:14:55.204Z,2.07
2018-08-27T08:17:23.319Z,2.23
2018-08-27T08:19:51.399Z,2.20
2018-08-27T08:22:19.491Z,2.23
2018-08-27T08:24:47.573Z,2.50
2018-08-27T08:27:15.665Z,2.40
2018-08-27T08:29:44.446Z,2.73
2018-08-27T08:32:13.271Z,2.23
2018-08-27T08:34:41.367Z,2.20
2018-08-27T08:37:09.447Z,2.27
2018-08-27T08:39:37.572Z,2.30
2018-08-27T08:42:06.317Z,2.10
2018-08-27T08:44:34.421Z,2.40
2018-08-27T08:47:03.018Z,1.87
2018-08-27T08:49:31.102Z,2.20
2018-08-27T08:51:59.204Z,1.77
2018-08-27T08:54:27.277Z,2.27
2018-08-27T08:56:55.408Z,2.27
2018-08-27T08:59:23.482Z,2.30
2018-08-27T09:01:51.603Z,1.80
2018-08-27T09:04:19.677Z,1.93
2018-08-27T09:06:47.768Z,1.93
2018-08-27T09:09:15.860Z,2.07
2018-08-27T09:11:43.962Z,2.00
2018-08-27T09:14:12.133Z,1.70
2018-08-27T09:16:40.334Z,2.37
2018-08-27T09:19:08.387Z,2.30
2018-08-27T09:21:36.458Z,2.43
2018-08-27T09:24:05.362Z,2.30
2018-08-27T09:26:33.441Z,2.53
2018-08-27T09:29:01.517Z,2.03
2018-08-27T09:31:30.621Z,2.20
2018-08-27T09:34:00.611Z,2.97
2018-08-27T09:36:29.478Z,3.20
2018-08-27T09:38:58.169Z,2.37
2018-08-27T09:41:27.196Z,2.50
2018-08-27T09:43:55.270Z,2.17
2018-08-27T09:46:23.467Z,2.50
2018-08-27T09:48:51.569Z,2.10
2018-08-27T09:51:19.737Z,2.30
2018-08-27T09:53:47.885Z,2.23
2018-08-27T09:56:16.839Z,2.33
2018-08-27T09:58:44.963Z,2.70
2018-08-27T10:01:20.567Z,1.97
2018-08-27T10:03:48.671Z,2.73
2018-08-27T10:06:16.747Z,2.70
2018-08-27T10:08:44.864Z,2.83
2018-08-27T10:11:12.933Z,2.67
2018-08-27T10:13:41.084Z,2.50
2018-08-27T10:16:09.148Z,2.93
2018-08-27T10:18:37.213Z,2.17
2018-08-27T10:21:05.297Z,2.40
2018-08-27T10:23:33.552Z,2.10
2018-08-27T10:26:01.643Z,2.43
2018-08-27T10:28:29.724Z,2.67
2018-08-27T10:30:57.790Z,2.10
2018-08-27T10:33:25.865Z,2.00
2018-08-27T10:35:53.964Z,2.10
2018-08-27T10:38:22.034Z,2.53
2018-08-27T10:40:50.119Z,2.23
2018-08-27T10:43:18.206Z,2.60
2018-08-27T10:45:46.279Z,2.63
2018-08-27T10:48:14.370Z,2.27
2018-08-27T10:50:42.442Z,2.30
2018-08-27T10:53:10.566Z,2.20
2018-08-27T10:55:38.642Z,2.43
2018-08-27T10:58:06.923Z,2.27
2018-08-27T11:00:34.986Z,2.00
2018-08-27T11:03:03.122Z,1.83
2018-08-27T11:05:31.198Z,2.33
2018-08-27T11:07:59.268Z,2.47
2018-08-27T11:10:27.349Z,2.17
2018-08-27T11:12:55.425Z,2.20
2018-08-27T11:15:23.523Z,2.33
2018-08-27T11:17:51.585Z,1.80
2018-08-27T11:20:19.818Z,2.13
2018-08-27T11:22:47.758Z,2.00
2018-08-27T11:25:15.834Z,2.10
2018-08-27T11:27:43.931Z,2.20
2018-08-27T11:30:12.009Z,1.97
2018-08-27T11:32:40.104Z,2.30
2018-08-27T11:35:09.081Z,2.97
2018-08-27T11:37:37.693Z,2.07
2018-08-27T11:40:08.849Z,2.40
2018-08-27T11:42:38.275Z,2.53
2018-08-27T11:45:06.521Z,1.93
2018-08-27T11:47:34.607Z,2.23
2018-08-27T11:50:02.707Z,2.43
2018-08-27T11:52:30.769Z,2.30
2018-08-27T11:54:59.313Z,2.20
2018-08-27T11:57:27.302Z,2.03
2018-08-27T11:59:55.391Z,1.60
2018-08-27T12:02:23.493Z,2.50
2018-08-27T12:04:51.809Z,1.90
2018-08-27T12:07:19.887Z,1.87
2018-08-27T12:09:47.975Z,1.57
2018-08-27T12:12:16.054Z,2.10
2018-08-27T12:14:44.136Z,1.70
2018-08-27T12:17:12.219Z,1.60
2018-08-27T12:19:40.332Z,1.73
2018-08-27T12:22:08.409Z,1.50
2018-08-27T12:24:36.507Z,1.47
2018-08-27T12:27:04.684Z,1.47
2018-08-27T12:29:32.774Z,1.40
2018-08-27T12:32:01.179Z,1.50
2018-08-27T12:34:29.325Z,1.43
2018-08-27T12:36:57.427Z,1.90
2018-08-27T12:39:25.518Z,1.53
2018-08-27T12:41:53.584Z,2.10
2018-08-27T12:44:21.673Z,1.83
2018-08-27T12:46:49.737Z,1.30
2018-08-27T12:49:17.817Z,1.60
2018-08-27T12:51:45.889Z,1.73
2018-08-27T12:54:13.983Z,1.50
2018-08-27T12:56:42.086Z,1.90
2018-08-27T12:59:10.175Z,1.40
2018-08-27T13:01:38.253Z,1.67
2018-08-27T13:04:06.969Z,1.57
2018-08-27T13:06:35.048Z,1.90
2018-08-27T13:09:03.430Z,1.70
2018-08-27T13:11:32.338Z,1.90
2018-08-27T13:14:01.071Z,2.43
2018-08-27T13:16:29.302Z,1.50
2018-08-27T13:18:59.110Z,1.93
2018-08-27T13:21:27.254Z,1.50
2018-08-27T13:23:56.005Z,2.00
2018-08-27T13:26:24.210Z,1.83
2018-08-27T13:28:52.317Z,1.60
2018-08-27T13:31:20.428Z,2.00
2018-08-27T13:33:48.482Z,1.60
2018-08-27T13:36:16.570Z,1.60
2018-08-27T13:38:44.651Z,1.73
2018-08-27T13:41:12.735Z,1.83
2018-08-27T13:43:40.805Z,2.17
2018-08-27T13:46:08.920Z,1.70
2018-08-27T13:48:37.050Z,1.97
2018-08-27T13:51:05.096Z,1.70
2018-08-27T13:53:33.165Z,1.67
2018-08-27T13:56:01.242Z,1.70
2018-08-27T13:58:29.310Z,1.87
2018-08-27T14:00:57.462Z,1.70
2018-08-27T14:03:25.578Z,1.30
2018-08-27T14:05:53.665Z,1.63
2018-08-27T14:08:21.736Z,1.65
2018-08-27T14:10:49.865Z,1.50
2018-08-27T14:13:17.913Z,1.80
2018-08-27T14:15:46.045Z,1.50
2018-08-27T14:18:14.098Z,1.33
2018-08-27T14:20:42.236Z,2.33
2018-08-27T14:23:10.273Z,1.73
2018-08-27T14:25:38.402Z,1.63
2018-08-27T14:28:06.481Z,1.23
2018-08-27T14:30:34.568Z,1.50
2018-08-27T14:33:02.666Z,1.70
2018-08-27T14:35:30.777Z,1.50
2018-08-27T14:37:58.813Z,1.80
2018-08-27T14:40:26.901Z,1.60
2018-08-27T14:42:54.981Z,1.83
2018-08-27T14:45:23.057Z,1.70
2018-08-27T14:47:51.210Z,1.60
2018-08-27T14:50:19.237Z,1.70
2018-08-27T14:52:47.331Z,1.50
2018-08-27T14:55:15.430Z,1.77
2018-08-27T14:57:43.505Z,1.77
2018-08-27T15:00:11.592Z,1.60
2018-08-27T15:02:39.664Z,1.60
2018-08-27T15:05:08.069Z,1.50
2018-08-27T15:07:36.158Z,1.87
2018-08-27T15:10:04.525Z,1.63
2018-08-27T15:12:32.606Z,2.00
2018-08-27T15:15:00.685Z,1.70
2018-08-27T15:17:28.780Z,2.00
2018-08-27T15:19:56.889Z,1.83
2018-08-27T15:22:24.969Z,2.20
2018-08-27T15:24:53.080Z,2.00
2018-08-27T15:27:21.176Z,1.70
2018-08-27T15:29:49.277Z,1.90
2018-08-27T15:32:17.348Z,3.30
2018-08-27T15:34:45.437Z,1.90
2018-08-27T15:37:13.541Z,2.03
2018-08-27T15:39:41.614Z,2.07
2018-08-27T15:42:09.690Z,2.27
2018-08-27T15:44:37.818Z,2.00
2018-08-27T15:47:05.866Z,1.90
2018-08-27T15:49:33.987Z,1.97
2018-08-27T15:52:02.028Z,2.20
2018-08-27T15:54:30.121Z,3.10
2018-08-27T15:56:58.213Z,2.00
2018-08-27T15:59:26.285Z,2.50
2018-08-27T16:01:54.365Z,1.60
2018-08-27T16:04:22.626Z,2.03
2018-08-27T16:06:50.590Z,2.20
2018-08-27T16:09:18.668Z,2.53
2018-08-27T16:11:46.759Z,1.90
2018-08-27T16:14:14.837Z,2.03
2018-08-27T16:16:42.916Z,1.87
2018-08-27T16:19:11.022Z,3.30
2018-08-27T16:21:39.120Z,1.80
2018-08-27T16:24:07.233Z,2.30
2018-08-27T16:26:35.318Z,2.45
2018-08-27T16:29:03.432Z,1.97
2018-08-27T16:31:31.498Z,2.37
2018-08-27T16:33:59.569Z,1.70
2018-08-27T16:36:27.653Z,2.40
2018-08-27T16:38:55.732Z,2.40
2018-08-27T16:41:23.821Z,1.90
2018-08-27T16:43:51.919Z,2.10
2018-08-27T16:46:20.004Z,2.30
2018-08-27T16:48:48.072Z,2.00
2018-08-27T16:51:16.189Z,2.10
2018-08-27T16:53:44.266Z,2.20
2018-08-27T16:56:12.366Z,2.30
2018-08-27T16:58:40.451Z,2.00
2018-08-27T17:01:08.537Z,2.10
2018-08-27T17:03:36.834Z,2.10
2018-08-27T17:06:04.922Z,2.10
2018-08-27T17:08:33.025Z,2.80
2018-08-27T17:11:01.109Z,2.40
2018-08-27T17:13:29.188Z,2.73
2018-08-27T17:15:57.293Z,2.40
2018-08-27T17:18:25.384Z,1.93
2018-08-27T17:20:53.485Z,2.00
2018-08-27T17:23:21.549Z,2.50
2018-08-27T17:25:49.617Z,2.13
2018-08-27T17:28:17.726Z,2.30
2018-08-27T17:30:45.803Z,2.50
2018-08-27T17:33:13.892Z,2.40
2018-08-27T17:35:41.982Z,2.80
2018-08-27T17:38:10.251Z,2.87
2018-08-27T17:40:38.326Z,2.53
2018-08-27T17:43:06.401Z,2.43
2018-08-27T17:45:34.489Z,2.43
2018-08-27T17:48:02.575Z,2.50
2018-08-27T17:50:30.701Z,2.20
2018-08-27T17:52:58.849Z,2.03
2018-08-27T17:55:26.933Z,2.60
2018-08-27T17:57:55.014Z,2.40
2018-08-27T18:00:23.110Z,2.30
2018-08-27T18:02:51.197Z,2.40
2018-08-27T18:05:19.273Z,2.20
2018-08-27T18:07:47.365Z,2.40
2018-08-27T18:10:15.447Z,2.47
2018-08-27T18:12:43.528Z,2.30
2018-08-27T18:15:11.913Z,2.00
2018-08-27T18:17:40.028Z,1.80
2018-08-27T18:20:08.267Z,2.53
2018-08-27T18:22:36.425Z,2.50
2018-08-27T18:25:04.509Z,2.60
2018-08-27T18:27:32.524Z,2.70
2018-08-27T18:30:00.589Z,2.60
2018-08-27T18:32:28.694Z,2.70
2018-08-27T18:34:56.900Z,2.60
2018-08-27T18:37:24.855Z,2.17
2018-08-27T18:39:53.116Z,2.70
2018-08-27T18:42:21.202Z,2.43
2018-08-27T18:44:49.290Z,2.40
2018-08-27T18:47:17.377Z,2.40
2018-08-27T18:49:45.444Z,2.00
2018-08-27T18:52:13.797Z,2.27
2018-08-27T18:54:41.885Z,2.63
2018-08-27T18:57:10.002Z,2.30
2018-08-27T18:59:38.417Z,2.77
2018-08-27T19:02:06.526Z,2.97
2018-08-27T19:04:34.596Z,2.40
2018-08-27T19:07:02.730Z,2.50
2018-08-27T19:09:30.806Z,2.53
2018-08-27T19:11:58.889Z,2.20
2018-08-27T19:14:26.977Z,2.40
2018-08-27T19:16:55.061Z,2.00
2018-08-27T19:19:23.145Z,2.20
2018-08-27T19:21:51.279Z,2.63
2018-08-27T19:24:19.410Z,2.47
2018-08-27T19:26:47.434Z,2.03
2018-08-27T19:29:15.538Z,2.27
2018-08-27T19:31:43.619Z,1.97
2018-08-27T19:34:11.693Z,2.50
2018-08-27T19:36:39.880Z,2.60
2018-08-27T19:39:07.973Z,2.60
2018-08-27T19:41:36.113Z,2.60
2018-08-27T19:44:04.230Z,2.40
2018-08-27T19:46:32.325Z,2.47
2018-08-27T19:49:00.897Z,2.50
2018-08-27T19:51:29.018Z,2.00
2018-08-27T19:53:57.076Z,2.57
2018-08-27T19:56:25.178Z,2.30
2018-08-27T19:58:53.257Z,2.30
2018-08-27T20:01:21.510Z,2.40
2018-08-27T20:03:49.636Z,2.70
2018-08-27T20:06:17.812Z,2.47
2018-08-27T20:08:46.438Z,3.47
2018-08-27T20:11:14.519Z,3.10
2018-08-27T20:13:42.619Z,2.90
2018-08-27T20:16:10.758Z,2.67
2018-08-27T20:18:38.789Z,2.80
2018-08-27T20:21:06.869Z,2.53
2018-08-27T20:23:34.966Z,2.90
2018-08-27T20:26:03.113Z,2.30
2018-08-27T20:28:31.140Z,2.20
2018-08-27T20:30:59.212Z,2.40
2018-08-27T20:33:27.299Z,2.30
2018-08-27T20:35:55.380Z,2.53
2018-08-27T20:38:23.512Z,2.33
2018-08-27T20:40:51.590Z,2.60
2018-08-27T20:43:19.700Z,2.60
2018-08-27T20:45:47.841Z,2.90
2018-08-27T20:48:15.897Z,2.33
2018-08-27T20:50:44.033Z,2.07
2018-08-27T20:53:12.089Z,2.43
2018-08-27T20:55:40.170Z,2.10
2018-08-27T20:58:08.257Z,1.90
2018-08-27T21:00:36.365Z,2.77
2018-08-27T21:03:04.473Z,2.23
2018-08-27T21:05:32.532Z,2.00
2018-08-27T21:08:00.646Z,2.57
2018-08-27T21:10:29.034Z,2.43
2018-08-27T21:12:57.097Z,2.40
2018-08-27T21:15:25.232Z,2.63
2018-08-27T21:17:54.068Z,2.80
2018-08-27T21:20:22.948Z,3.10
2018-08-27T21:22:51.100Z,2.60
2018-08-27T21:25:19.275Z,2.40
2018-08-27T21:27:48.481Z,2.30
2018-08-27T21:30:17.921Z,2.70
2018-08-27T21:32:45.976Z,2.40
2018-08-27T21:35:14.145Z,2.57
2018-08-27T21:37:42.212Z,2.60
2018-08-27T21:40:10.306Z,2.50
2018-08-27T21:42:38.373Z,2.17
2018-08-27T21:45:06.676Z,2.30
2018-08-27T21:47:34.775Z,2.70
2018-08-27T21:50:02.870Z,2.57
2018-08-27T21:52:31.233Z,2.47
2018-08-27T21:54:59.349Z,2.53
2018-08-27T21:57:27.417Z,2.47
2018-08-27T21:59:55.517Z,2.77
2018-08-27T22:02:28.916Z,2.77
2018-08-27T22:04:57.010Z,2.70
2018-08-27T22:07:25.085Z,2.97
2018-08-27T22:09:53.173Z,2.90
2018-08-27T22:12:21.249Z,2.67
2018-08-27T22:14:50.136Z,3.70
2018-08-27T22:17:18.209Z,3.63
2018-08-27T22:19:46.285Z,3.30
2018-08-27T22:22:14.423Z,3.27
2018-08-27T22:24:42.442Z,3.60
2018-08-27T22:27:10.520Z,3.30
2018-08-27T22:29:38.615Z,4.13
2018-08-27T22:32:06.714Z,3.63
2018-08-27T22:34:34.817Z,3.70
2018-08-27T22:37:03.814Z,4.47
2018-08-27T22:39:31.906Z,3.97
2018-08-27T22:41:59.978Z,3.83
2018-08-27T22:44:28.056Z,4.17
2018-08-27T22:46:56.136Z,3.70
2018-08-27T22:49:24.239Z,4.00
2018-08-27T22:51:52.313Z,4.10
2018-08-27T22:54:20.398Z,3.83
2018-08-27T22:56:48.473Z,4.07
2018-08-27T22:59:16.565Z,3.73
2018-08-27T23:01:44.646Z,5.07
2018-08-27T23:04:18.149Z,4.90
2018-08-27T23:06:46.234Z,4.63
2018-08-27T23:09:14.334Z,4.30
2018-08-27T23:11:42.426Z,4.87
2018-08-27T23:14:10.508Z,4.60
2018-08-27T23:16:38.572Z,3.93
2018-08-27T23:19:06.653Z,4.27
2018-08-27T23:21:34.720Z,4.43
2018-08-27T23:24:02.804Z,4.50
2018-08-27T23:26:30.901Z,4.93
2018-08-27T23:28:58.983Z,4.23
2018-08-27T23:31:27.049Z,5.60
2018-08-27T23:33:55.125Z,4.43
2018-08-27T23:36:23.405Z,4.80
2018-08-27T23:38:51.486Z,4.77
2018-08-27T23:41:19.573Z,4.40
2018-08-27T23:43:47.656Z,5.27
2018-08-27T23:46:15.733Z,5.07
2018-08-27T23:48:43.877Z,5.43
2018-08-27T23:51:11.974Z,5.30
2018-08-27T23:53:40.062Z,5.37
2018-08-27T23:56:08.157Z,5.60
2018-08-27T23:58:36.351Z,5.93
